« Back
NWS Peachtree City, Ga » Text Product » CSG Terminal Aerodrome Forecast


Printer-friendly Version
Current Version              Previous Versions:   1  2  3  4  5  6  7  8  9  

Terminal Aerodrome Forecast

492
FTUS42 KFFC 241100
TAFCSG
TAF
KCSG 241123Z 2412/2512 00000KT P6SM SCT250
     FM241600 VRB04KT P6SM FEW200
     FM250000 00000KT P6SM SKC=



USA.gov is the U.S. government's official web portal to all federal, state and local government web resources and services.